createdAt,value
2019-05-09T00:01:14.438Z,2.13
2019-05-09T00:03:44.285Z,1.77
2019-05-09T00:06:13.758Z,1.83
2019-05-09T00:08:44.209Z,2.10
2019-05-09T00:11:14.467Z,2.20
2019-05-09T00:13:43.678Z,2.80
2019-05-09T00:16:14.576Z,2.17
2019-05-09T00:18:44.104Z,2.00
2019-05-09T00:21:20.967Z,2.03
2019-05-09T00:23:49.479Z,2.20
2019-05-09T00:26:18.067Z,2.13
2019-05-09T00:28:50.012Z,2.13
2019-05-09T00:31:43.678Z,1.67
2019-05-09T00:34:15.848Z,1.60
2019-05-09T00:36:46.026Z,1.73
2019-05-09T00:39:14.564Z,2.00
2019-05-09T00:41:47.865Z,1.83
2019-05-09T00:44:23.247Z,2.00
2019-05-09T00:47:14.527Z,2.00
2019-05-09T00:49:43.519Z,2.37
2019-05-09T00:52:14.125Z,1.70
2019-05-09T00:54:43.774Z,1.77
2019-05-09T00:57:33.451Z,2.30
2019-05-09T01:00:05.926Z,1.93
2019-05-09T01:02:34.613Z,1.90
2019-05-09T01:05:04.263Z,2.10
2019-05-09T01:07:33.683Z,2.17
2019-05-09T01:10:04.313Z,2.10
2019-05-09T01:12:34.109Z,2.00
2019-05-09T01:15:03.460Z,2.33
2019-05-09T01:17:33.505Z,2.50
2019-05-09T01:20:03.340Z,1.93
2019-05-09T01:22:33.883Z,1.63
2019-05-09T01:25:04.166Z,1.70
2019-05-09T01:27:33.971Z,2.07
2019-05-09T01:30:04.608Z,1.80
2019-05-09T01:32:53.990Z,1.60
2019-05-09T01:35:24.203Z,2.10
2019-05-09T01:37:53.868Z,1.90
2019-05-09T01:40:23.887Z,1.93
2019-05-09T01:42:53.808Z,1.80
2019-05-09T01:45:23.703Z,1.70
2019-05-09T01:47:53.766Z,1.63
2019-05-09T01:50:23.323Z,1.70
2019-05-09T01:52:53.350Z,1.70
2019-05-09T01:55:24.681Z,1.97
2019-05-09T01:57:53.796Z,1.70
2019-05-09T02:00:23.895Z,1.60
2019-05-09T02:02:54.037Z,1.73
2019-05-09T02:05:24.062Z,1.50
2019-05-09T02:07:54.177Z,1.60
2019-05-09T02:10:25.084Z,1.53
2019-05-09T02:12:53.898Z,2.07
2019-05-09T02:15:35.787Z,1.63
2019-05-09T02:18:10.742Z,1.50
2019-05-09T02:20:39.196Z,1.23
2019-05-09T02:23:08.391Z,1.47
2019-05-09T02:25:36.883Z,1.70
2019-05-09T02:28:05.379Z,2.03
2019-05-09T02:30:36.074Z,1.70
2019-05-09T02:33:05.220Z,1.57
2019-05-09T02:35:43.348Z,1.93
2019-05-09T02:38:04.150Z,1.50
2019-05-09T02:40:32.665Z,1.60
2019-05-09T02:43:01.684Z,1.80
2019-05-09T02:45:38.949Z,1.20
2019-05-09T02:48:09.250Z,1.47
2019-05-09T02:50:38.532Z,1.37
2019-05-09T02:53:08.168Z,1.30
2019-05-09T02:55:38.759Z,1.73
2019-05-09T02:58:09.253Z,1.13
2019-05-09T03:01:08.288Z,1.47
2019-05-09T03:03:39.216Z,1.90
2019-05-09T03:06:09.187Z,2.30
2019-05-09T03:08:38.417Z,1.33
2019-05-09T03:11:09.757Z,1.57
2019-05-09T03:13:39.445Z,1.13
2019-05-09T03:16:12.262Z,1.10
2019-05-09T03:18:40.646Z,1.23
2019-05-09T03:21:29.777Z,1.27
2019-05-09T03:23:59.208Z,2.30
2019-05-09T03:26:31.665Z,1.50
2019-05-09T03:29:19.091Z,1.37
2019-05-09T03:31:50.070Z,1.30
2019-05-09T03:34:19.584Z,1.50
2019-05-09T03:36:48.509Z,1.40
2019-05-09T03:39:18.476Z,1.43
2019-05-09T03:41:53.148Z,1.10
2019-05-09T03:44:22.163Z,1.27
2019-05-09T03:47:09.176Z,1.60
2019-05-09T03:49:37.750Z,1.50
2019-05-09T03:52:07.579Z,1.70
2019-05-09T03:54:37.544Z,2.37
2019-05-09T03:57:13.837Z,1.57
2019-05-09T03:59:43.420Z,1.60
2019-05-09T04:02:11.819Z,1.70
2019-05-09T04:04:40.308Z,1.93
2019-05-09T04:07:08.818Z,1.33
2019-05-09T04:09:39.597Z,1.93
2019-05-09T04:12:09.979Z,2.03
2019-05-09T04:14:38.709Z,2.37
2019-05-09T04:17:10.336Z,1.40
2019-05-09T04:19:40.488Z,1.90
2019-05-09T04:22:09.404Z,2.00
2019-05-09T04:24:38.384Z,2.20
2019-05-09T04:27:11.520Z,2.37
2019-05-09T04:29:40.121Z,2.80
2019-05-09T04:32:08.508Z,2.90
2019-05-09T04:34:38.051Z,3.00
2019-05-09T04:37:11.634Z,2.63
2019-05-09T04:39:40.789Z,2.53
2019-05-09T04:42:10.734Z,2.50
2019-05-09T04:44:57.674Z,2.43
2019-05-09T04:47:21.852Z,2.93
2019-05-09T04:49:50.325Z,3.10
2019-05-09T04:52:18.718Z,4.60
2019-05-09T04:54:48.502Z,5.27
2019-05-09T04:57:17.985Z,4.40
2019-05-09T04:59:48.167Z,3.63
2019-05-09T05:02:39.196Z,4.47
2019-05-09T05:05:07.974Z,3.20
2019-05-09T05:07:37.641Z,3.73
2019-05-09T05:10:09.026Z,3.57
2019-05-09T05:12:38.078Z,4.00
2019-05-09T05:15:08.102Z,3.80
2019-05-09T05:17:37.739Z,4.17
2019-05-09T05:20:10.336Z,3.40
2019-05-09T05:22:44.117Z,5.10
2019-05-09T05:25:12.525Z,3.90
2019-05-09T05:27:41.000Z,4.23
2019-05-09T05:30:09.571Z,3.20
2019-05-09T05:32:48.799Z,4.37
2019-05-09T05:35:37.611Z,4.20
2019-05-09T05:38:08.387Z,4.40
2019-05-09T05:40:45.556Z,4.60
2019-05-09T05:43:08.767Z,4.97
2019-05-09T05:45:50.323Z,5.67
2019-05-09T05:48:23.242Z,4.07
2019-05-09T05:50:51.688Z,4.63
2019-05-09T05:53:20.144Z,4.70
2019-05-09T05:55:52.218Z,5.10
2019-05-09T05:58:19.051Z,5.37
2019-05-09T06:00:48.155Z,5.87
2019-05-09T06:03:17.806Z,5.17
2019-05-09T06:05:51.367Z,4.80
2019-05-09T06:08:17.544Z,5.20
2019-05-09T06:10:48.309Z,5.07
2019-05-09T06:13:18.322Z,6.47
2019-05-09T06:15:48.183Z,6.33
2019-05-09T06:18:18.371Z,6.63
2019-05-09T06:20:48.614Z,5.87
2019-05-09T06:23:18.841Z,5.17
2019-05-09T06:25:48.604Z,5.13
2019-05-09T06:28:18.251Z,5.00
2019-05-09T06:30:47.705Z,6.23
2019-05-09T06:33:18.072Z,6.03
2019-05-09T06:35:48.084Z,6.60
2019-05-09T06:38:18.783Z,7.33
2019-05-09T06:40:47.673Z,5.77
2019-05-09T06:43:18.283Z,5.27
2019-05-09T06:46:08.129Z,4.93
2019-05-09T06:48:37.841Z,5.60
2019-05-09T06:51:07.341Z,6.40
2019-05-09T06:53:38.049Z,6.20
2019-05-09T06:56:07.471Z,6.60
2019-05-09T06:58:38.125Z,5.60
2019-05-09T07:01:32.261Z,4.77
2019-05-09T07:04:15.792Z,6.67
2019-05-09T07:06:48.442Z,5.70
2019-05-09T07:09:35.704Z,6.07
2019-05-09T07:12:09.282Z,6.00
2019-05-09T07:14:41.301Z,5.67
2019-05-09T07:17:08.545Z,6.23
2019-05-09T07:19:38.359Z,5.87
2019-05-09T07:22:28.025Z,7.03
2019-05-09T07:25:22.171Z,6.27
2019-05-09T07:27:50.565Z,5.40
2019-05-09T07:30:30.795Z,5.10
2019-05-09T07:33:13.381Z,5.73
2019-05-09T07:35:41.895Z,5.30
2019-05-09T07:38:10.272Z,6.77
2019-05-09T07:40:38.813Z,5.70
2019-05-09T07:43:07.837Z,5.80
2019-05-09T07:45:39.607Z,6.10
2019-05-09T07:48:08.099Z,7.60
2019-05-09T07:50:38.875Z,7.33
2019-05-09T07:53:08.751Z,7.30
2019-05-09T07:55:38.008Z,7.60
2019-05-09T07:58:07.989Z,7.23
2019-05-09T08:00:38.524Z,7.30
2019-05-09T08:03:10.296Z,7.17
2019-05-09T08:05:38.555Z,8.73
2019-05-09T08:08:14.634Z,6.53
2019-05-09T08:10:43.037Z,6.90
2019-05-09T08:13:12.229Z,6.87
2019-05-09T08:15:41.068Z,6.07
2019-05-09T08:18:10.247Z,5.23
2019-05-09T08:20:40.756Z,5.47
2019-05-09T08:23:09.240Z,5.27
2019-05-09T08:25:38.358Z,5.40
2019-05-09T08:28:09.006Z,5.80
2019-05-09T08:30:40.275Z,5.80
2019-05-09T08:33:08.528Z,5.53
2019-05-09T08:35:38.306Z,6.00
2019-05-09T08:38:08.613Z,5.40
2019-05-09T08:40:38.190Z,5.27
2019-05-09T08:43:08.759Z,6.60
2019-05-09T08:45:38.240Z,5.67
2019-05-09T08:48:09.422Z,5.70
2019-05-09T08:50:42.609Z,6.37
2019-05-09T08:53:11.599Z,5.70
2019-05-09T08:55:39.984Z,6.00
2019-05-09T08:58:10.166Z,4.60
2019-05-09T09:00:39.198Z,6.00
2019-05-09T09:03:08.118Z,4.77
2019-05-09T09:05:38.113Z,4.67
2019-05-09T09:08:08.323Z,3.03
2019-05-09T09:10:38.416Z,2.13
2019-05-09T09:13:08.751Z,2.27
2019-05-09T09:18:09.485Z,2.50
2019-05-09T09:20:38.849Z,3.00
2019-05-09T09:23:08.859Z,2.40
2019-05-09T09:25:39.111Z,2.90
2019-05-09T09:28:08.697Z,2.97
2019-05-09T09:30:38.783Z,3.07
2019-05-09T09:33:10.113Z,3.13
2019-05-09T09:35:38.340Z,3.00
2019-05-09T09:38:09.050Z,3.73
2019-05-09T09:40:38.511Z,2.87
2019-05-09T09:43:09.189Z,3.40
2019-05-09T09:45:37.861Z,2.83
2019-05-09T09:48:09.080Z,3.60
2019-05-09T09:50:38.311Z,3.30
2019-05-09T09:53:08.860Z,3.30
2019-05-09T09:55:38.426Z,2.80
2019-05-09T09:58:08.157Z,3.07
2019-05-09T10:01:03.629Z,3.47
2019-05-09T10:03:32.663Z,2.53
2019-05-09T10:06:01.143Z,2.40
2019-05-09T10:08:30.355Z,2.90
2019-05-09T10:10:59.197Z,3.60
2019-05-09T10:13:28.602Z,3.97
2019-05-09T10:16:17.911Z,3.50
2019-05-09T10:18:57.851Z,2.90
2019-05-09T10:21:29.520Z,3.33
2019-05-09T10:23:58.106Z,3.90
2019-05-09T10:26:28.415Z,4.07
2019-05-09T10:28:57.096Z,4.03
2019-05-09T10:31:28.076Z,3.87
2019-05-09T10:33:58.031Z,4.17
2019-05-09T10:36:27.886Z,4.30
2019-05-09T10:38:58.518Z,3.60
2019-05-09T10:41:27.523Z,3.63
2019-05-09T10:44:02.419Z,3.07
2019-05-09T10:46:57.159Z,2.50
2019-05-09T10:49:21.277Z,2.90
2019-05-09T10:51:50.353Z,2.80
2019-05-09T10:54:18.811Z,3.40
2019-05-09T10:56:48.737Z,3.27
2019-05-09T10:59:18.290Z,2.50
2019-05-09T11:01:49.396Z,2.60
2019-05-09T11:04:19.023Z,2.87
2019-05-09T11:06:49.783Z,2.27
2019-05-09T11:09:18.522Z,2.73
2019-05-09T11:11:48.405Z,2.83
2019-05-09T11:14:32.788Z,3.43
2019-05-09T11:16:54.215Z,3.13
2019-05-09T11:19:18.735Z,3.70
2019-05-09T11:21:47.929Z,4.90
2019-05-09T11:24:18.736Z,5.10
2019-05-09T11:26:48.089Z,4.90
2019-05-09T11:29:18.724Z,3.90
2019-05-09T11:31:47.721Z,4.57
2019-05-09T11:34:18.650Z,4.10
2019-05-09T11:36:46.757Z,3.97
2019-05-09T11:39:15.429Z,3.17
2019-05-09T11:41:44.089Z,3.70
2019-05-09T11:44:14.359Z,1.90
2019-05-09T11:46:42.747Z,2.40
2019-05-09T11:49:11.193Z,2.00
2019-05-09T11:51:39.591Z,2.33
2019-05-09T11:54:09.158Z,2.70
2019-05-09T11:56:39.050Z,3.37
2019-05-09T11:59:08.028Z,2.80
2019-05-09T12:01:39.421Z,4.20
2019-05-09T12:04:08.017Z,3.07
2019-05-09T12:06:38.373Z,3.20
2019-05-09T12:09:08.700Z,2.33
2019-05-09T12:11:40.083Z,2.10
2019-05-09T12:14:08.870Z,2.20
2019-05-09T12:16:38.199Z,1.87
2019-05-09T12:19:08.581Z,2.60
2019-05-09T12:21:46.519Z,3.17
2019-05-09T12:24:09.110Z,3.87
2019-05-09T12:26:39.100Z,2.80
2019-05-09T12:29:08.706Z,2.90
2019-05-09T12:31:38.661Z,2.20
2019-05-09T12:34:09.126Z,3.27
2019-05-09T12:36:39.824Z,2.80
2019-05-09T12:39:08.910Z,2.80
2019-05-09T12:41:38.464Z,3.03
2019-05-09T12:44:08.895Z,2.20
2019-05-09T12:46:39.310Z,1.93
2019-05-09T12:49:09.083Z,2.03
2019-05-09T12:51:37.854Z,3.10
2019-05-09T12:54:08.474Z,3.17
2019-05-09T12:56:38.458Z,3.73
2019-05-09T12:59:08.788Z,4.10
2019-05-09T13:01:40.614Z,3.90
2019-05-09T13:04:09.759Z,4.20
2019-05-09T13:06:39.760Z,4.00
2019-05-09T13:09:08.565Z,3.73
2019-05-09T13:11:39.132Z,3.90
2019-05-09T13:14:10.150Z,2.93
2019-05-09T13:16:52.423Z,3.57
2019-05-09T13:19:19.252Z,3.70
2019-05-09T13:21:47.755Z,3.47
2019-05-09T13:24:19.518Z,3.17
2019-05-09T13:26:49.568Z,3.10
2019-05-09T13:29:18.153Z,2.87
2019-05-09T13:31:48.284Z,3.00
2019-05-09T13:34:18.918Z,2.40
2019-05-09T13:36:49.334Z,2.17
2019-05-09T13:39:19.067Z,2.40
2019-05-09T13:41:47.822Z,2.27
2019-05-09T13:44:18.105Z,2.73
2019-05-09T13:46:48.985Z,2.80
2019-05-09T13:49:19.383Z,2.50
2019-05-09T13:51:57.364Z,2.67
2019-05-09T13:54:19.344Z,2.47
2019-05-09T13:56:54.932Z,2.73
2019-05-09T13:59:18.761Z,2.90
2019-05-09T14:01:48.083Z,2.17
2019-05-09T14:04:16.844Z,2.17
2019-05-09T14:06:48.748Z,2.47
2019-05-09T14:09:20.005Z,2.30
2019-05-09T14:11:48.103Z,1.83
2019-05-09T14:14:17.904Z,2.20
2019-05-09T14:16:47.827Z,1.90
2019-05-09T14:19:39.093Z,1.43
2019-05-09T14:21:48.113Z,2.00
2019-05-09T14:24:19.131Z,1.97
2019-05-09T14:26:48.003Z,2.10
2019-05-09T14:29:20.513Z,2.60
2019-05-09T14:31:47.628Z,1.57
2019-05-09T14:34:16.191Z,1.77
2019-05-09T14:36:46.014Z,2.27
2019-05-09T14:39:15.080Z,1.73
2019-05-09T14:41:47.252Z,1.40
2019-05-09T14:44:17.949Z,2.63
2019-05-09T14:46:48.234Z,1.97
2019-05-09T14:49:17.681Z,1.80
2019-05-09T14:51:50.026Z,1.90
2019-05-09T14:54:18.858Z,2.40
2019-05-09T14:56:49.084Z,2.10
2019-05-09T14:59:18.626Z,1.40
2019-05-09T15:01:49.602Z,1.90
2019-05-09T15:04:18.865Z,1.90
2019-05-09T15:06:48.756Z,3.20
2019-05-09T15:09:18.237Z,2.80
2019-05-09T15:11:48.391Z,1.37
2019-05-09T15:14:18.125Z,3.10
2019-05-09T15:16:48.547Z,2.40
2019-05-09T15:19:18.463Z,4.67
2019-05-09T15:21:48.892Z,1.40
2019-05-09T15:24:19.152Z,1.80
2019-05-09T15:26:49.912Z,1.27
2019-05-09T15:29:18.374Z,1.10
2019-05-09T15:31:53.042Z,1.80
2019-05-09T15:34:18.560Z,1.23
2019-05-09T15:36:48.423Z,1.30
2019-05-09T15:39:18.940Z,1.23
2019-05-09T15:41:47.839Z,3.00
2019-05-09T15:44:18.676Z,1.20
2019-05-09T15:46:52.275Z,1.73
2019-05-09T15:49:20.885Z,1.90
2019-05-09T15:51:49.339Z,2.00
2019-05-09T15:54:18.046Z,1.20
2019-05-09T15:56:48.397Z,1.03
2019-05-09T15:59:18.188Z,1.30
2019-05-09T16:01:49.192Z,1.43
2019-05-09T16:04:17.817Z,2.17
2019-05-09T16:06:50.992Z,2.20
2019-05-09T16:09:18.597Z,3.70
2019-05-09T16:11:48.347Z,1.53
2019-05-09T16:14:18.424Z,2.50
2019-05-09T16:16:47.810Z,1.60
2019-05-09T16:19:16.406Z,1.57
2019-05-09T16:21:44.853Z,1.30
2019-05-09T16:24:13.251Z,1.77
2019-05-09T16:26:43.465Z,1.20
2019-05-09T16:29:13.774Z,1.37
2019-05-09T16:31:42.260Z,0.90
2019-05-09T16:34:10.773Z,1.30
2019-05-09T16:36:39.214Z,1.30
2019-05-09T16:39:07.637Z,2.30
2019-05-09T16:41:39.258Z,1.80
2019-05-09T16:44:07.801Z,1.80
2019-05-09T16:46:37.570Z,1.50
2019-05-09T16:49:11.611Z,1.90
2019-05-09T16:51:40.556Z,1.40
2019-05-09T16:54:08.322Z,1.43
2019-05-09T16:56:38.137Z,1.73
2019-05-09T16:59:08.317Z,2.00
2019-05-09T17:01:39.776Z,1.50
2019-05-09T17:04:08.358Z,1.40
2019-05-09T17:06:38.092Z,1.43
2019-05-09T17:09:10.379Z,1.87
2019-05-09T17:11:39.425Z,1.50
2019-05-09T17:14:09.283Z,1.07
2019-05-09T17:16:39.668Z,1.50
2019-05-09T17:19:08.102Z,1.70
2019-05-09T17:21:51.481Z,1.53
2019-05-09T17:24:22.307Z,1.67
2019-05-09T17:26:50.716Z,1.83
2019-05-09T17:29:19.918Z,1.50
2019-05-09T17:31:49.038Z,1.30
2019-05-09T17:34:18.065Z,1.90
2019-05-09T17:36:46.745Z,2.03
2019-05-09T17:39:15.327Z,1.50
2019-05-09T17:41:44.312Z,1.33
2019-05-09T17:44:13.389Z,1.23
2019-05-09T17:46:43.602Z,1.50
2019-05-09T17:49:12.066Z,1.90
2019-05-09T17:51:41.102Z,2.30
2019-05-09T17:54:09.598Z,2.00
2019-05-09T17:56:38.498Z,2.17
2019-05-09T17:59:08.499Z,2.00
2019-05-09T18:01:37.380Z,1.70
2019-05-09T18:04:06.747Z,2.00
2019-05-09T18:06:38.000Z,2.00
2019-05-09T18:09:08.494Z,2.07
2019-05-09T18:11:37.755Z,2.70
2019-05-09T18:14:08.152Z,2.30
2019-05-09T18:16:38.941Z,2.07
2019-05-09T18:19:08.290Z,1.97
2019-05-09T18:21:49.938Z,1.77
2019-05-09T18:24:08.858Z,2.77
2019-05-09T18:26:38.288Z,2.63
2019-05-09T18:29:07.502Z,4.90
2019-05-09T18:31:58.874Z,2.63
2019-05-09T18:34:28.843Z,3.63
2019-05-09T18:36:58.737Z,3.83
2019-05-09T18:39:27.914Z,3.40
2019-05-09T18:41:57.750Z,3.50
2019-05-09T18:44:27.571Z,3.10
2019-05-09T18:46:57.731Z,3.30
2019-05-09T18:49:26.707Z,3.87
2019-05-09T18:52:03.371Z,6.37
2019-05-09T18:54:25.612Z,3.27
2019-05-09T18:56:54.108Z,3.50
2019-05-09T18:59:22.584Z,3.50
2019-05-09T19:01:51.056Z,3.87
2019-05-09T19:04:19.534Z,4.10
2019-05-09T19:06:48.035Z,4.40
2019-05-09T19:09:17.479Z,5.13
2019-05-09T19:11:46.102Z,5.10
2019-05-09T19:14:17.039Z,5.20
2019-05-09T19:17:05.470Z,5.53
2019-05-09T19:19:56.330Z,6.10
2019-05-09T19:22:26.357Z,5.47
2019-05-09T19:24:54.881Z,7.60
2019-05-09T19:27:23.467Z,5.50
2019-05-09T19:29:52.068Z,4.93
2019-05-09T19:32:20.696Z,5.10
2019-05-09T19:34:49.605Z,5.20
2019-05-09T19:37:18.496Z,4.67
2019-05-09T19:39:46.924Z,4.87
2019-05-09T19:42:15.428Z,5.13
2019-05-09T19:44:43.977Z,4.40
2019-05-09T19:47:12.603Z,5.03
2019-05-09T19:49:41.022Z,4.20
2019-05-09T19:52:09.528Z,4.37
2019-05-09T19:54:38.125Z,4.50
2019-05-09T19:57:06.546Z,6.33
2019-05-09T19:59:35.072Z,4.73
2019-05-09T20:02:04.576Z,4.83
2019-05-09T20:04:32.978Z,4.30
2019-05-09T20:07:01.574Z,4.73
2019-05-09T20:09:36.794Z,4.73
2019-05-09T20:12:34.512Z,5.70
2019-05-09T20:15:03.915Z,4.50
2019-05-09T20:17:32.299Z,4.93
2019-05-09T20:20:01.052Z,5.23
2019-05-09T20:22:29.461Z,5.77
2019-05-09T20:24:57.859Z,4.93
2019-05-09T20:27:26.355Z,6.10
2019-05-09T20:29:54.935Z,5.23
2019-05-09T20:32:23.323Z,5.47
2019-05-09T20:34:53.530Z,6.07
2019-05-09T20:37:23.727Z,7.20
2019-05-09T20:39:52.329Z,8.13
2019-05-09T20:42:20.826Z,6.30
2019-05-09T20:44:49.204Z,7.63
2019-05-09T20:47:17.611Z,6.77
2019-05-09T20:49:46.112Z,6.57
2019-05-09T20:52:14.729Z,6.30
2019-05-09T20:54:43.134Z,6.17
2019-05-09T20:57:11.620Z,6.10
2019-05-09T20:59:40.087Z,7.07
2019-05-09T21:02:08.704Z,6.40
2019-05-09T21:04:37.095Z,6.60
2019-05-09T21:07:05.471Z,9.60
2019-05-09T21:09:33.909Z,7.57
2019-05-09T21:12:02.501Z,7.30
2019-05-09T21:14:31.005Z,7.27
2019-05-09T21:16:59.585Z,6.43
2019-05-09T21:19:28.160Z,5.77
2019-05-09T21:21:56.546Z,5.33
2019-05-09T21:24:25.027Z,5.23
2019-05-09T21:26:53.427Z,6.10
2019-05-09T21:29:22.020Z,5.80
2019-05-09T21:31:50.662Z,5.50
2019-05-09T21:34:19.150Z,5.90
2019-05-09T21:36:47.548Z,5.20
2019-05-09T21:39:16.135Z,6.40
2019-05-09T21:41:44.565Z,4.87
2019-05-09T21:44:13.165Z,5.47
2019-05-09T21:46:41.983Z,5.97
2019-05-09T21:49:10.469Z,5.80
2019-05-09T21:51:38.851Z,6.50
2019-05-09T21:54:07.368Z,5.87
2019-05-09T21:56:35.854Z,5.13
2019-05-09T21:59:04.246Z,5.10
2019-05-09T22:01:33.363Z,4.90
2019-05-09T22:04:01.783Z,4.00
2019-05-09T22:06:30.481Z,5.00
2019-05-09T22:08:59.298Z,5.37
2019-05-09T22:11:27.841Z,4.90
2019-05-09T22:13:56.249Z,4.83
2019-05-09T22:16:24.648Z,5.13
2019-05-09T22:18:53.034Z,4.93
2019-05-09T22:21:21.471Z,4.53
2019-05-09T22:23:56.271Z,5.30
2019-05-09T22:26:21.148Z,5.50
2019-05-09T22:28:49.626Z,5.83
2019-05-09T22:31:18.710Z,5.40
2019-05-09T22:33:47.289Z,5.97
2019-05-09T22:36:15.815Z,4.90
2019-05-09T22:38:44.312Z,5.23
2019-05-09T22:41:12.728Z,4.67
2019-05-09T22:43:41.300Z,4.70
2019-05-09T22:46:09.816Z,4.27
2019-05-09T22:48:38.300Z,5.17
2019-05-09T22:51:13.794Z,4.13
2019-05-09T22:53:43.756Z,5.00
2019-05-09T22:56:13.963Z,4.07
2019-05-09T22:58:42.448Z,5.33
2019-05-09T23:01:11.120Z,4.37
2019-05-09T23:03:39.614Z,4.80
2019-05-09T23:06:08.102Z,4.10
2019-05-09T23:08:36.599Z,4.20
2019-05-09T23:11:05.002Z,4.27
2019-05-09T23:13:50.999Z,3.70
2019-05-09T23:16:21.410Z,3.57
2019-05-09T23:18:49.892Z,3.73
2019-05-09T23:21:19.620Z,3.80
2019-05-09T23:23:57.594Z,4.53
2019-05-09T23:26:25.999Z,3.60
2019-05-09T23:28:54.575Z,3.50
2019-05-09T23:31:36.016Z,4.20
2019-05-09T23:34:04.510Z,4.00
2019-05-09T23:36:33.006Z,4.47
2019-05-09T23:39:20.701Z,4.17
2019-05-09T23:41:49.696Z,4.50
2019-05-09T23:44:18.091Z,4.10
2019-05-09T23:46:46.571Z,3.10
2019-05-09T23:49:14.966Z,3.50
2019-05-09T23:51:44.778Z,3.73
2019-05-09T23:54:45.407Z,3.97
2019-05-09T23:57:22.503Z,3.43
